Frankfort, KY

12:09 AM EST on March 06, 2015 (GMT -0500)
Capital City | Change Station
CLOSE
Current Station
Airport
Location: Frankfort,
Elevation: 804 ft
Nearby Weather Stations
Active Advisory: Flood Warning Active Notice: Record Report, Public Information Statement

Elev 804 ft 38.18 °N, 84.90 °W | Updated 16 minutes ago

Clear
Clear
6 °F
Feels Like 6 °F
N
0
Wind Variable Wind from North

Today
High -- | Low -- °F
--% Chance of Precip.
Yesterday
High -- | Low -- °F
Precip. -- in
7:04 AM 6:37 PM
Full, 100% visible
Pressure 30.57 in
Visibility 10.0 miles
Clouds Clear
Dew Point 0 °F
Humidity 76%
Rainfall 0.00 in
Snow Depth Not available.
UV 0 out of 12
Pollen .70 out of 12
Air Quality Not available.
Flu Activity Not available.
METAR KFFT 060453Z AUTO 00000KT 10SM CLR M14/M18 A3053 RMK AO2 SLP352 I1000 T11441178 410331167

More Conditions Fewer Conditions

Pressure 30.57 in
Visibility 10.0 miles
Clouds Clear
Dew Point 0 °F
Humidity 76%
Rainfall 0.00 in
Snow Depth Not available.
UV 0 out of 12
Pollen .70 out of 12
Air Quality Not available.
Flu Activity Not available.
METAR KFFT 060453Z AUTO 00000KT 10SM CLR M14/M18 A3053 RMK AO2 SLP352 I1000 T11441178 410331167

More Conditions Fewer Conditions

10-Day Weather Forecast

Almanac

Astronomy

Mar. 06, 2015 Rise Set
Actual Time
Civil Twilight
Nautical Twilight
Astronomical Twilight
Moon
Length of Visible Light
Length of Day
Tomorrow will be .
, % of the Moon is Illuminated

Today's Extremes

State Highs State Lows

Community

WunderPhotos

Upload Photos

1,803,184 photos uploaded!

WunderBlogs® & News

Nearby

Air Quality

  Air Quality AQ Index Pollutant
Not available.

Snow Depth

Station Depth Elevation

Earthquake Activity

City Distance Mag. Time & Date
Minimum magnitude displayed is 2.5.

Coastal Water Temperatures

Place Temperature

Nearby Weather Stations

Flood Warning
Statement as of 10:19 PM EST on March 05, 2015

The Flood Warning continues for
the Kentucky River at Frankfort lock.
* From Friday morning to Friday evening.
* At 9:30 PM Thursday the stage was 29.2 feet.
* Flood stage is 31.0 feet.
* Minor flooding is forecast.
* Forecast... rise to near 31.0 feet by Friday morning.
* Impact... at 31.0 feet... Benson valley Road floods. Water approaches
Stoney Creek Road.
* Flood history... this crest compares to a previous crest of 30.9
feet on may 9 1961.


Lat... Lon 3797 8476 3818 8482 3835 8481 3834 8496
      3809 8495 3791 8489